sensor_id;sensor_type;location;lat;lon;timestamp;pressure;altitude;pressure_sealevel;temperature;humidity
45793;BME280;31495;42.740;22.908;2022-11-14T00:00:27;94161.16;;;3.58;68.64
45793;BME280;31495;42.740;22.908;2022-11-14T00:01:26;94163.97;;;3.65;68.83
45793;BME280;31495;42.740;22.908;2022-11-14T00:02:26;94150.13;;;3.58;68.68
45793;BME280;31495;42.740;22.908;2022-11-14T00:03:26;94158.97;;;3.63;68.79
45793;BME280;31495;42.740;22.908;2022-11-14T00:04:26;94179.03;;;3.68;68.77
45793;BME280;31495;42.740;22.908;2022-11-14T00:05:25;94141.28;;;3.42;68.85
45793;BME280;31495;42.740;22.908;2022-11-14T00:06:25;94158.00;;;3.46;68.40
45793;BME280;31495;42.740;22.908;2022-11-14T00:07:25;94186.34;;;3.63;68.55
45793;BME280;31495;42.740;22.908;2022-11-14T00:08:24;94185.53;;;3.62;68.51
45793;BME280;31495;42.740;22.908;2022-11-14T00:09:25;94170.22;;;3.53;68.88
45793;BME280;31495;42.740;22.908;2022-11-14T00:10:24;94166.47;;;3.47;68.64
45793;BME280;31495;42.740;22.908;2022-11-14T00:11:24;94149.69;;;3.35;68.98
45793;BME280;31495;42.740;22.908;2022-11-14T00:12:23;94185.16;;;3.47;69.09
45793;BME280;31495;42.740;22.908;2022-11-14T00:13:23;94182.72;;;3.56;69.19
45793;BME280;31495;42.740;22.908;2022-11-14T00:14:23;94146.69;;;3.39;68.69
45793;BME280;31495;42.740;22.908;2022-11-14T00:15:22;94176.78;;;3.55;68.50
45793;BME280;31495;42.740;22.908;2022-11-14T00:16:21;94180.19;;;3.46;68.59
45793;BME280;31495;42.740;22.908;2022-11-14T00:17:21;94178.50;;;3.37;68.47
45793;BME280;31495;42.740;22.908;2022-11-14T00:18:21;94185.47;;;3.44;68.37
45793;BME280;31495;42.740;22.908;2022-11-14T00:19:21;94145.84;;;3.11;68.41
45793;BME280;31495;42.740;22.908;2022-11-14T00:20:20;94186.97;;;3.37;68.70
45793;BME280;31495;42.740;22.908;2022-11-14T00:21:19;94169.75;;;3.29;68.71
45793;BME280;31495;42.740;22.908;2022-11-14T00:22:19;94128.75;;;3.11;68.76
45793;BME280;31495;42.740;22.908;2022-11-14T00:23:19;94193.53;;;3.49;68.85
45793;BME280;31495;42.740;22.908;2022-11-14T00:24:19;94157.09;;;3.28;68.86
45793;BME280;31495;42.740;22.908;2022-11-14T00:25:19;94132.00;;;3.13;68.99
45793;BME280;31495;42.740;22.908;2022-11-14T00:26:18;94178.06;;;3.41;68.79
45793;BME280;31495;42.740;22.908;2022-11-14T00:27:17;94187.97;;;3.54;68.63
45793;BME280;31495;42.740;22.908;2022-11-14T00:28:17;94193.25;;;3.53;68.35
45793;BME280;31495;42.740;22.908;2022-11-14T00:29:16;94185.56;;;3.53;68.12
45793;BME280;31495;42.740;22.908;2022-11-14T00:30:16;94175.25;;;3.44;68.10
45793;BME280;31495;42.740;22.908;2022-11-14T00:31:15;94160.59;;;3.37;68.15
45793;BME280;31495;42.740;22.908;2022-11-14T00:32:14;94184.88;;;3.50;68.24
45793;BME280;31495;42.740;22.908;2022-11-14T00:33:14;94179.50;;;3.54;68.28
45793;BME280;31495;42.740;22.908;2022-11-14T00:34:14;94183.44;;;3.48;68.06
45793;BME280;31495;42.740;22.908;2022-11-14T00:35:13;94179.41;;;3.45;68.23
45793;BME280;31495;42.740;22.908;2022-11-14T00:36:13;94150.25;;;3.28;68.39
45793;BME280;31495;42.740;22.908;2022-11-14T00:37:12;94165.31;;;3.31;68.67
45793;BME280;31495;42.740;22.908;2022-11-14T00:38:13;94182.91;;;3.44;68.63
45793;BME280;31495;42.740;22.908;2022-11-14T00:39:13;94181.28;;;3.43;68.71
45793;BME280;31495;42.740;22.908;2022-11-14T00:40:13;94143.13;;;3.22;68.65
45793;BME280;31495;42.740;22.908;2022-11-14T00:41:15;94175.66;;;3.40;68.85
45793;BME280;31495;42.740;22.908;2022-11-14T00:42:15;94153.59;;;3.29;68.41
45793;BME280;31495;42.740;22.908;2022-11-14T00:43:14;94134.69;;;3.12;68.21
45793;BME280;31495;42.740;22.908;2022-11-14T00:44:14;94187.63;;;3.39;68.49
45793;BME280;31495;42.740;22.908;2022-11-14T00:45:13;94181.47;;;3.32;68.74
45793;BME280;31495;42.740;22.908;2022-11-14T00:46:13;94166.38;;;3.29;69.09
45793;BME280;31495;42.740;22.908;2022-11-14T00:47:12;94174.44;;;3.34;69.07
45793;BME280;31495;42.740;22.908;2022-11-14T00:48:12;94173.09;;;3.40;69.39
45793;BME280;31495;42.740;22.908;2022-11-14T00:49:12;94109.16;;;3.02;69.30
45793;BME280;31495;42.740;22.908;2022-11-14T00:50:11;94156.16;;;3.29;68.90
45793;BME280;31495;42.740;22.908;2022-11-14T00:51:10;94182.75;;;3.46;69.10
45793;BME280;31495;42.740;22.908;2022-11-14T00:52:10;94177.38;;;3.39;69.07
45793;BME280;31495;42.740;22.908;2022-11-14T00:53:10;94179.00;;;3.40;69.19
45793;BME280;31495;42.740;22.908;2022-11-14T00:54:10;94167.59;;;3.35;69.41
45793;BME280;31495;42.740;22.908;2022-11-14T00:55:09;94126.34;;;3.10;69.23
45793;BME280;31495;42.740;22.908;2022-11-14T00:56:08;94175.53;;;3.41;69.18
45793;BME280;31495;42.740;22.908;2022-11-14T00:57:08;94149.72;;;3.25;69.28
45793;BME280;31495;42.740;22.908;2022-11-14T00:58:07;94153.75;;;3.27;69.33
45793;BME280;31495;42.740;22.908;2022-11-14T00:59:07;94173.91;;;3.40;69.26
45793;BME280;31495;42.740;22.908;2022-11-14T01:00:06;94158.44;;;3.32;69.50
45793;BME280;31495;42.740;22.908;2022-11-14T01:01:06;94168.28;;;3.27;69.69
45793;BME280;31495;42.740;22.908;2022-11-14T01:02:06;94169.19;;;3.36;69.73
45793;BME280;31495;42.740;22.908;2022-11-14T01:03:05;94109.94;;;3.03;69.26
45793;BME280;31495;42.740;22.908;2022-11-14T01:04:05;94135.22;;;3.16;69.01
45793;BME280;31495;42.740;22.908;2022-11-14T01:05:04;94145.81;;;3.21;68.96
45793;BME280;31495;42.740;22.908;2022-11-14T01:06:06;94169.19;;;3.36;68.88
45793;BME280;31495;42.740;22.908;2022-11-14T01:07:06;94168.41;;;3.35;68.80
45793;BME280;31495;42.740;22.908;2022-11-14T01:08:06;94163.56;;;3.32;69.01
45793;BME280;31495;42.740;22.908;2022-11-14T01:09:06;94157.94;;;3.19;69.17
45793;BME280;31495;42.740;22.908;2022-11-14T01:10:06;94132.28;;;3.10;69.16
45793;BME280;31495;42.740;22.908;2022-11-14T01:11:12;94170.84;;;3.27;69.16
45793;BME280;31495;42.740;22.908;2022-11-14T01:12:11;94125.97;;;2.95;68.97
45793;BME280;31495;42.740;22.908;2022-11-14T01:13:13;94167.63;;;3.25;68.85
45793;BME280;31495;42.740;22.908;2022-11-14T01:14:12;94163.59;;;3.22;68.91
45793;BME280;31495;42.740;22.908;2022-11-14T01:15:12;94167.91;;;3.22;69.04
45793;BME280;31495;42.740;22.908;2022-11-14T01:16:11;94131.63;;;2.99;68.82
45793;BME280;31495;42.740;22.908;2022-11-14T01:17:11;94172.44;;;3.28;68.89
45793;BME280;31495;42.740;22.908;2022-11-14T01:18:13;94178.13;;;3.22;69.01
45793;BME280;31495;42.740;22.908;2022-11-14T01:19:13;94144.28;;;3.00;68.93
45793;BME280;31495;42.740;22.908;2022-11-14T01:20:13;94150.31;;;2.99;69.00
45793;BME280;31495;42.740;22.908;2022-11-14T01:21:13;94166.97;;;3.13;69.20
45793;BME280;31495;42.740;22.908;2022-11-14T01:22:13;94149.25;;;3.02;69.26
45793;BME280;31495;42.740;22.908;2022-11-14T01:23:14;94158.25;;;3.06;69.40
45793;BME280;31495;42.740;22.908;2022-11-14T01:24:14;94111.22;;;2.79;69.35
45793;BME280;31495;42.740;22.908;2022-11-14T01:25:14;94157.84;;;3.10;68.69
45793;BME280;31495;42.740;22.908;2022-11-14T01:26:14;94172.06;;;3.23;68.96
45793;BME280;31495;42.740;22.908;2022-11-14T01:27:13;94165.09;;;3.15;69.31
45793;BME280;31495;42.740;22.908;2022-11-14T01:28:18;94158.78;;;3.09;69.24
45793;BME280;31495;42.740;22.908;2022-11-14T01:29:17;94172.34;;;3.20;68.93
45793;BME280;31495;42.740;22.908;2022-11-14T01:30:17;94144.97;;;2.92;69.35
45793;BME280;31495;42.740;22.908;2022-11-14T01:31:19;94165.53;;;3.01;69.19
45793;BME280;31495;42.740;22.908;2022-11-14T01:32:19;94164.19;;;2.97;69.25
45793;BME280;31495;42.740;22.908;2022-11-14T01:33:19;94126.97;;;2.74;69.22
45793;BME280;31495;42.740;22.908;2022-11-14T01:34:18;94129.66;;;2.83;69.23
45793;BME280;31495;42.740;22.908;2022-11-14T01:35:17;94143.34;;;2.91;69.24
45793;BME280;31495;42.740;22.908;2022-11-14T01:36:17;94147.13;;;2.97;69.74
45793;BME280;31495;42.740;22.908;2022-11-14T01:37:17;94146.31;;;2.87;69.87
45793;BME280;31495;42.740;22.908;2022-11-14T01:38:16;94129.41;;;2.76;70.28
45793;BME280;31495;42.740;22.908;2022-11-14T01:39:16;94159.50;;;2.92;69.99
45793;BME280;31495;42.740;22.908;2022-11-14T01:40:15;94107.63;;;2.62;69.94
45793;BME280;31495;42.740;22.908;2022-11-14T01:41:15;94149.56;;;2.89;69.97
45793;BME280;31495;42.740;22.908;2022-11-14T01:42:14;94155.31;;;2.91;69.80
45793;BME280;31495;42.740;22.908;2022-11-14T01:44:54;94104.25;;;2.62;69.75
45793;BME280;31495;42.740;22.908;2022-11-14T01:46:05;94153.03;;;2.88;69.53
45793;BME280;31495;42.740;22.908;2022-11-14T01:47:05;94132.88;;;2.75;69.40
45793;BME280;31495;42.740;22.908;2022-11-14T01:48:18;94153.03;;;2.88;69.33
45793;BME280;31495;42.740;22.908;2022-11-14T01:49:21;94145.78;;;2.83;69.49
45793;BME280;31495;42.740;22.908;2022-11-14T01:50:23;94137.44;;;2.81;69.76
45793;BME280;31495;42.740;22.908;2022-11-14T01:51:28;94148.84;;;2.97;69.61
45793;BME280;31495;42.740;22.908;2022-11-14T01:52:35;94157.88;;;2.91;69.48
45793;BME280;31495;42.740;22.908;2022-11-14T01:53:36;94153.03;;;2.88;69.87
45793;BME280;31495;42.740;22.908;2022-11-14T01:54:49;94130.19;;;2.76;69.63
45793;BME280;31495;42.740;22.908;2022-11-14T01:55:51;94146.59;;;2.84;69.59
45793;BME280;31495;42.740;22.908;2022-11-14T01:56:55;94141.22;;;2.77;69.48
45793;BME280;31495;42.740;22.908;2022-11-14T01:57:56;94118.78;;;2.61;69.75
45793;BME280;31495;42.740;22.908;2022-11-14T01:59:17;94122.16;;;2.62;70.27
45793;BME280;31495;42.740;22.908;2022-11-14T02:00:17;94120.53;;;2.61;70.17
45793;BME280;31495;42.740;22.908;2022-11-14T02:01:17;94140.28;;;2.78;70.21
45793;BME280;31495;42.740;22.908;2022-11-14T02:02:19;94147.25;;;2.86;70.17
45793;BME280;31495;42.740;22.908;2022-11-14T02:03:19;94146.84;;;2.90;70.07
45793;BME280;31495;42.740;22.908;2022-11-14T02:04:31;94115.16;;;2.64;69.80
45793;BME280;31495;42.740;22.908;2022-11-14T02:05:32;94143.38;;;2.72;69.34
45793;BME280;31495;42.740;22.908;2022-11-14T02:06:33;94133.31;;;2.61;69.22
45793;BME280;31495;42.740;22.908;2022-11-14T02:07:37;94145.28;;;2.60;69.85
45793;BME280;31495;42.740;22.908;2022-11-14T02:08:37;94116.25;;;2.42;70.02
45793;BME280;31495;42.740;22.908;2022-11-14T02:09:40;94107.50;;;2.34;69.91
45793;BME280;31495;42.740;22.908;2022-11-14T02:10:41;94135.72;;;2.62;69.70
45793;BME280;31495;42.740;22.908;2022-11-14T02:11:42;94134.00;;;2.63;69.67
45793;BME280;31495;42.740;22.908;2022-11-14T02:12:43;94113.56;;;2.53;69.66
45793;BME280;31495;42.740;22.908;2022-11-14T02:13:44;94113.97;;;2.48;69.58
45793;BME280;31495;42.740;22.908;2022-11-14T02:14:46;94117.31;;;2.58;69.41
45793;BME280;31495;42.740;22.908;2022-11-14T02:15:46;94107.09;;;2.49;69.02
45793;BME280;31495;42.740;22.908;2022-11-14T02:16:46;94119.47;;;2.53;69.12
45793;BME280;31495;42.740;22.908;2022-11-14T02:17:45;94131.84;;;2.58;68.73
45793;BME280;31495;42.740;22.908;2022-11-14T02:18:45;94130.09;;;2.58;68.77
45793;BME280;31495;42.740;22.908;2022-11-14T02:19:51;94134.53;;;2.66;68.72
45793;BME280;31495;42.740;22.908;2022-11-14T02:20:51;94109.66;;;2.49;68.74
45793;BME280;31495;42.740;22.908;2022-11-14T02:21:51;94132.50;;;2.70;68.81
45793;BME280;31495;42.740;22.908;2022-11-14T02:22:50;94138.25;;;2.72;68.94
45793;BME280;31495;42.740;22.908;2022-11-14T02:23:49;94105.75;;;2.54;69.02
45793;BME280;31495;42.740;22.908;2022-11-14T02:24:49;94135.84;;;2.70;69.35
45793;BME280;31495;42.740;22.908;2022-11-14T02:25:48;94138.13;;;2.73;70.09
45793;BME280;31495;42.740;22.908;2022-11-14T02:26:49;94112.84;;;2.61;70.80
45793;BME280;31495;42.740;22.908;2022-11-14T02:27:49;94136.66;;;2.71;70.99
45793;BME280;31495;42.740;22.908;2022-11-14T02:28:49;94118.78;;;2.61;70.95
45793;BME280;31495;42.740;22.908;2022-11-14T02:29:49;94090.44;;;2.45;71.02
45793;BME280;31495;42.740;22.908;2022-11-14T02:30:49;94115.84;;;2.66;70.80
45793;BME280;31495;42.740;22.908;2022-11-14T02:31:48;94130.97;;;2.77;70.74
45793;BME280;31495;42.740;22.908;2022-11-14T02:32:48;94139.88;;;2.73;70.86
45793;BME280;31495;42.740;22.908;2022-11-14T02:33:47;94121.47;;;2.69;71.04
45793;BME280;31495;42.740;22.908;2022-11-14T02:34:46;94091.25;;;2.45;71.05
45793;BME280;31495;42.740;22.908;2022-11-14T02:35:46;94134.00;;;2.63;71.48
45793;BME280;31495;42.740;22.908;2022-11-14T02:36:45;94100.53;;;2.46;71.60
45793;BME280;31495;42.740;22.908;2022-11-14T02:37:45;94126.84;;;2.66;71.51
45793;BME280;31495;42.740;22.908;2022-11-14T02:38:44;94104.66;;;2.57;71.46
45793;BME280;31495;42.740;22.908;2022-11-14T02:39:43;94130.06;;;2.68;71.50
45793;BME280;31495;42.740;22.908;2022-11-14T02:40:43;94082.25;;;2.41;71.63
45793;BME280;31495;42.740;22.908;2022-11-14T02:41:43;94115.13;;;2.73;71.06
45793;BME280;31495;42.740;22.908;2022-11-14T02:42:42;94110.44;;;2.69;71.05
45793;BME280;31495;42.740;22.908;2022-11-14T02:43:41;94081.16;;;2.53;70.82
45793;BME280;31495;42.740;22.908;2022-11-14T02:44:41;94137.44;;;2.81;71.09
45793;BME280;31495;42.740;22.908;2022-11-14T02:45:41;94103.59;;;2.69;70.64
45793;BME280;31495;42.740;22.908;2022-11-14T02:46:40;94117.69;;;2.73;70.80
45793;BME280;31495;42.740;22.908;2022-11-14T02:47:39;94121.88;;;2.74;70.75
45793;BME280;31495;42.740;22.908;2022-11-14T02:48:39;94126.97;;;2.74;70.85
45793;BME280;31495;42.740;22.908;2022-11-14T02:49:38;94104.53;;;2.68;70.69
45793;BME280;31495;42.740;22.908;2022-11-14T02:50:38;94112.44;;;2.75;70.54
45793;BME280;31495;42.740;22.908;2022-11-14T02:51:37;94110.28;;;2.70;70.54
45793;BME280;31495;42.740;22.908;2022-11-14T02:52:37;94102.78;;;2.59;70.75
45793;BME280;31495;42.740;22.908;2022-11-14T02:53:37;94069.31;;;2.43;70.96
45793;BME280;31495;42.740;22.908;2022-11-14T02:54:36;94112.72;;;2.72;70.86
45793;BME280;31495;42.740;22.908;2022-11-14T02:55:35;94111.91;;;2.71;71.16
45793;BME280;31495;42.740;22.908;2022-11-14T02:56:35;94091.09;;;2.56;71.51
45793;BME280;31495;42.740;22.908;2022-11-14T02:57:35;94116.34;;;2.79;71.04
45793;BME280;31495;42.740;22.908;2022-11-14T02:58:34;94081.78;;;2.65;70.65
45793;BME280;31495;42.740;22.908;2022-11-14T02:59:34;94097.94;;;2.75;70.97
45793;BME280;31495;42.740;22.908;2022-11-14T03:00:34;94066.06;;;2.60;70.78
45793;BME280;31495;42.740;22.908;2022-11-14T03:01:33;94110.97;;;2.82;70.95
45793;BME280;31495;42.740;22.908;2022-11-14T03:02:32;94114.16;;;2.84;71.09
45793;BME280;31495;42.740;22.908;2022-11-14T03:03:32;94086.34;;;2.71;71.43
45793;BME280;31495;42.740;22.908;2022-11-14T03:04:31;94097.94;;;2.75;71.50
45793;BME280;31495;42.740;22.908;2022-11-14T03:05:31;94110.28;;;2.80;71.53
45793;BME280;31495;42.740;22.908;2022-11-14T03:06:30;94111.63;;;2.84;71.36
45793;BME280;31495;42.740;22.908;2022-11-14T03:07:30;94108.81;;;2.78;70.19
45793;BME280;31495;42.740;22.908;2022-11-14T03:08:29;94104.66;;;2.57;69.58
45793;BME280;31495;42.740;22.908;2022-11-14T03:09:28;94072.69;;;2.43;69.48
45793;BME280;31495;42.740;22.908;2022-11-14T03:10:28;94112.31;;;2.67;68.96
45793;BME280;31495;42.740;22.908;2022-11-14T03:11:27;94111.25;;;2.69;68.96
45793;BME280;31495;42.740;22.908;2022-11-14T03:12:27;94107.06;;;2.68;69.07
45793;BME280;31495;42.740;22.908;2022-11-14T03:13:28;94103.72;;;2.68;68.79
45793;BME280;31495;42.740;22.908;2022-11-14T03:14:31;94112.19;;;2.68;68.77
45793;BME280;31495;42.740;22.908;2022-11-14T03:15:31;94104.94;;;2.64;68.66
45793;BME280;31495;42.740;22.908;2022-11-14T03:16:30;94110.03;;;2.64;68.76
45793;BME280;31495;42.740;22.908;2022-11-14T03:17:31;94104.00;;;2.55;68.59
45793;BME280;31495;42.740;22.908;2022-11-14T03:18:31;94119.06;;;2.58;68.58
45793;BME280;31495;42.740;22.908;2022-11-14T03:19:31;94101.31;;;2.47;68.57
45793;BME280;31495;42.740;22.908;2022-11-14T03:20:30;94084.50;;;2.44;68.64
45793;BME280;31495;42.740;22.908;2022-11-14T03:21:29;94068.53;;;2.32;68.59
45793;BME280;31495;42.740;22.908;2022-11-14T03:22:29;94094.47;;;2.47;68.79
45793;BME280;31495;42.740;22.908;2022-11-14T03:23:29;94110.31;;;2.61;68.64
45793;BME280;31495;42.740;22.908;2022-11-14T03:24:28;94069.50;;;2.31;68.83
45793;BME280;31495;42.740;22.908;2022-11-14T03:25:27;94090.44;;;2.45;69.18
45793;BME280;31495;42.740;22.908;2022-11-14T03:26:27;94118.25;;;2.67;68.95
45793;BME280;31495;42.740;22.908;2022-11-14T03:27:26;94108.44;;;2.72;69.07
45793;BME280;31495;42.740;22.908;2022-11-14T03:28:26;94120.09;;;2.85;68.94
45793;BME280;31495;42.740;22.908;2022-11-14T03:29:26;94109.50;;;2.70;69.17
45793;BME280;31495;42.740;22.908;2022-11-14T03:30:26;94110.28;;;2.70;69.39
45793;BME280;31495;42.740;22.908;2022-11-14T03:31:25;94116.22;;;2.81;68.82
45793;BME280;31495;42.740;22.908;2022-11-14T03:32:24;94066.88;;;2.51;68.30
45793;BME280;31495;42.740;22.908;2022-11-14T03:33:24;94122.63;;;2.85;68.23
45793;BME280;31495;42.740;22.908;2022-11-14T03:34:23;94110.28;;;2.80;68.54
45793;BME280;31495;42.740;22.908;2022-11-14T03:35:23;94114.31;;;2.83;68.50
45793;BME280;31495;42.740;22.908;2022-11-14T03:36:22;94086.91;;;2.65;68.63
45793;BME280;31495;42.740;22.908;2022-11-14T03:37:22;94100.31;;;2.77;68.73
45793;BME280;31495;42.740;22.908;2022-11-14T03:38:21;94102.19;;;2.85;68.64
45793;BME280;31495;42.740;22.908;2022-11-14T03:39:21;94098.19;;;2.82;68.88
45793;BME280;31495;42.740;22.908;2022-11-14T03:40:20;94065.94;;;2.62;69.27
45793;BME280;31495;42.740;22.908;2022-11-14T03:41:20;94091.34;;;2.73;69.86
45793;BME280;31495;42.740;22.908;2022-11-14T03:42:19;94100.28;;;2.87;70.25
45793;BME280;31495;42.740;22.908;2022-11-14T03:43:20;94090.66;;;2.71;70.63
45793;BME280;31495;42.740;22.908;2022-11-14T03:44:20;94090.81;;;2.69;70.81
45793;BME280;31495;42.740;22.908;2022-11-14T03:45:19;94083.00;;;2.71;71.08
45793;BME280;31495;42.740;22.908;2022-11-14T03:46:19;94089.81;;;2.80;71.11
45793;BME280;31495;42.740;22.908;2022-11-14T03:47:18;94059.47;;;2.67;71.08
45793;BME280;31495;42.740;22.908;2022-11-14T03:48:18;94071.00;;;2.81;71.47
45793;BME280;31495;42.740;22.908;2022-11-14T03:49:17;94078.38;;;2.94;71.77
45793;BME280;31495;42.740;22.908;2022-11-14T03:50:17;94073.25;;;2.94;72.15
45793;BME280;31495;42.740;22.908;2022-11-14T03:51:16;94047.47;;;2.78;72.45
45793;BME280;31495;42.740;22.908;2022-11-14T03:52:16;94094.22;;;2.98;72.70
45793;BME280;31495;42.740;22.908;2022-11-14T03:53:15;94094.50;;;2.94;72.70
45793;BME280;31495;42.740;22.908;2022-11-14T03:54:15;94083.75;;;2.91;72.82
45793;BME280;31495;42.740;22.908;2022-11-14T03:55:14;94090.75;;;2.89;72.92
45793;BME280;31495;42.740;22.908;2022-11-14T03:56:14;94095.03;;;2.88;73.08
45793;BME280;31495;42.740;22.908;2022-11-14T03:57:13;94079.72;;;2.79;73.10
45793;BME280;31495;42.740;22.908;2022-11-14T03:58:12;94086.56;;;2.98;72.81
45793;BME280;31495;42.740;22.908;2022-11-14T03:59:12;94092.19;;;3.01;72.54
45793;BME280;31495;42.740;22.908;2022-11-14T04:00:12;94067.63;;;2.90;72.31
45793;BME280;31495;42.740;22.908;2022-11-14T04:01:11;94070.16;;;2.90;72.67
45793;BME280;31495;42.740;22.908;2022-11-14T04:02:10;94062.81;;;2.78;73.06
45793;BME280;31495;42.740;22.908;2022-11-14T04:03:10;94075.69;;;2.86;73.22
45793;BME280;31495;42.740;22.908;2022-11-14T04:04:12;94052.47;;;2.69;73.07
45793;BME280;31495;42.740;22.908;2022-11-14T04:05:12;94087.94;;;2.92;73.51
45793;BME280;31495;42.740;22.908;2022-11-14T04:06:12;94065.75;;;2.83;73.64
45793;BME280;31495;42.740;22.908;2022-11-14T04:07:11;94084.66;;;3.00;73.32
45793;BME280;31495;42.740;22.908;2022-11-14T04:08:11;94077.66;;;3.02;73.31
45793;BME280;31495;42.740;22.908;2022-11-14T04:09:10;94090.56;;;3.10;73.37
45793;BME280;31495;42.740;22.908;2022-11-14T04:10:10;94082.34;;;3.06;73.26
45793;BME280;31495;42.740;22.908;2022-11-14T04:11:09;94090.94;;;3.15;73.13
45793;BME280;31495;42.740;22.908;2022-11-14T04:12:08;94067.44;;;3.02;72.86
45793;BME280;31495;42.740;22.908;2022-11-14T04:13:08;94064.72;;;3.03;73.04
45793;BME280;31495;42.740;22.908;2022-11-14T04:14:08;94090.66;;;3.18;72.83
45793;BME280;31495;42.740;22.908;2022-11-14T04:15:08;94083.25;;;3.15;72.87
45793;BME280;31495;42.740;22.908;2022-11-14T04:16:08;94056.53;;;3.00;72.69
45793;BME280;31495;42.740;22.908;2022-11-14T04:17:07;94091.19;;;3.22;72.55
45793;BME280;31495;42.740;22.908;2022-11-14T04:18:07;94090.50;;;3.20;72.88
45793;BME280;31495;42.740;22.908;2022-11-14T04:19:07;94063.41;;;2.99;73.32
45793;BME280;31495;42.740;22.908;2022-11-14T04:20:06;94078.00;;;3.17;73.02
45793;BME280;31495;42.740;22.908;2022-11-14T04:21:06;94089.00;;;3.27;73.20
45793;BME280;31495;42.740;22.908;2022-11-14T04:22:05;94067.06;;;3.24;72.79
45793;BME280;31495;42.740;22.908;2022-11-14T04:23:05;94079.00;;;3.34;72.97
45793;BME280;31495;42.740;22.908;2022-11-14T04:24:05;94078.75;;;3.27;73.30
45793;BME280;31495;42.740;22.908;2022-11-14T04:25:05;94061.03;;;3.16;73.83
45793;BME280;31495;42.740;22.908;2022-11-14T04:26:05;94089.94;;;3.26;74.20
45793;BME280;31495;42.740;22.908;2022-11-14T04:27:05;94085.78;;;3.25;74.36
45793;BME280;31495;42.740;22.908;2022-11-14T04:28:04;94052.09;;;3.02;74.59
45793;BME280;31495;42.740;22.908;2022-11-14T04:29:04;94084.59;;;3.19;74.87
45793;BME280;31495;42.740;22.908;2022-11-14T04:30:04;94060.28;;;3.05;75.00
45793;BME280;31495;42.740;22.908;2022-11-14T04:31:04;94070.91;;;3.10;75.24
45793;BME280;31495;42.740;22.908;2022-11-14T04:32:03;94066.09;;;2.98;75.74
45793;BME280;31495;42.740;22.908;2022-11-14T04:33:03;94088.09;;;3.18;75.79
45793;BME280;31495;42.740;22.908;2022-11-14T04:34:03;94081.50;;;3.16;75.18
45793;BME280;31495;42.740;22.908;2022-11-14T04:35:02;94072.91;;;3.17;74.96
45793;BME280;31495;42.740;22.908;2022-11-14T04:36:02;94087.38;;;3.26;74.62
45793;BME280;31495;42.740;22.908;2022-11-14T04:37:02;94017.84;;;2.85;74.26
45793;BME280;31495;42.740;22.908;2022-11-14T04:38:02;94076.59;;;3.32;73.96
45793;BME280;31495;42.740;22.908;2022-11-14T04:39:01;94075.41;;;3.26;74.04
45793;BME280;31495;42.740;22.908;2022-11-14T04:40:01;94044.47;;;2.92;74.04
45793;BME280;31495;42.740;22.908;2022-11-14T04:41:01;94064.03;;;3.11;74.33
45793;BME280;31495;42.740;22.908;2022-11-14T04:42:01;94087.94;;;3.20;74.52
45793;BME280;31495;42.740;22.908;2022-11-14T04:43:00;94067.47;;;3.20;74.30
45793;BME280;31495;42.740;22.908;2022-11-14T04:44:00;94084.81;;;3.26;74.10
45793;BME280;31495;42.740;22.908;2022-11-14T04:44:59;94082.50;;;3.33;73.79
45793;BME280;31495;42.740;22.908;2022-11-14T04:45:59;94085.34;;;3.29;73.84
45793;BME280;31495;42.740;22.908;2022-11-14T04:46:58;94022.25;;;2.92;73.61
45793;BME280;31495;42.740;22.908;2022-11-14T04:47:58;94080.47;;;3.36;73.30
45793;BME280;31495;42.740;22.908;2022-11-14T04:48:57;94084.53;;;3.29;73.61
45793;BME280;31495;42.740;22.908;2022-11-14T04:49:57;94089.13;;;3.25;73.83
45793;BME280;31495;42.740;22.908;2022-11-14T04:50:57;94084.06;;;3.16;74.72
45793;BME280;31495;42.740;22.908;2022-11-14T04:51:56;94085.69;;;3.17;74.63
45793;BME280;31495;42.740;22.908;2022-11-14T04:52:56;94059.91;;;3.00;75.21
45793;BME280;31495;42.740;22.908;2022-11-14T04:53:55;94086.06;;;3.22;75.63
45793;BME280;31495;42.740;22.908;2022-11-14T04:54:55;94059.59;;;3.03;75.63
45793;BME280;31495;42.740;22.908;2022-11-14T04:55:54;93987.28;;;2.55;76.25
45793;BME280;31495;42.740;22.908;2022-11-14T04:56:54;94058.28;;;2.99;76.86
45793;BME280;31495;42.740;22.908;2022-11-14T04:57:54;94087.31;;;3.08;77.39
45793;BME280;31495;42.740;22.908;2022-11-14T04:58:54;94079.78;;;3.06;77.52
45793;BME280;31495;42.740;22.908;2022-11-14T04:59:53;94077.91;;;3.08;77.43
45793;BME280;31495;42.740;22.908;2022-11-14T05:00:53;94092.66;;;3.15;77.72
45793;BME280;31495;42.740;22.908;2022-11-14T05:01:52;94068.25;;;3.02;77.74
45793;BME280;31495;42.740;22.908;2022-11-14T05:02:52;94058.31;;;2.89;78.14
45793;BME280;31495;42.740;22.908;2022-11-14T05:03:51;94068.91;;;3.04;77.93
45793;BME280;31495;42.740;22.908;2022-11-14T05:04:51;94071.28;;;3.16;77.65
45793;BME280;31495;42.740;22.908;2022-11-14T05:05:50;94079.44;;;3.29;77.08
45793;BME280;31495;42.740;22.908;2022-11-14T05:06:50;94034.59;;;3.07;76.91
45793;BME280;31495;42.740;22.908;2022-11-14T05:07:49;94078.88;;;3.35;76.77
45793;BME280;31495;42.740;22.908;2022-11-14T05:08:48;94080.47;;;3.36;76.71
45793;BME280;31495;42.740;22.908;2022-11-14T05:09:48;94086.34;;;3.46;76.42
45793;BME280;31495;42.740;22.908;2022-11-14T05:10:47;94034.41;;;3.18;76.29
45793;BME280;31495;42.740;22.908;2022-11-14T05:11:47;94083.66;;;3.48;76.15
45793;BME280;31495;42.740;22.908;2022-11-14T05:12:46;94073.47;;;3.38;76.40
45793;BME280;31495;42.740;22.908;2022-11-14T05:13:46;94086.63;;;3.43;76.80
45793;BME280;31495;42.740;22.908;2022-11-14T05:14:45;94068.50;;;3.37;76.72
45793;BME280;31495;42.740;22.908;2022-11-14T05:15:45;94065.41;;;3.33;76.71
45793;BME280;31495;42.740;22.908;2022-11-14T05:16:45;94076.25;;;3.45;76.66
45793;BME280;31495;42.740;22.908;2022-11-14T05:17:44;94049.38;;;3.31;76.21
45793;BME280;31495;42.740;22.908;2022-11-14T05:18:43;94072.22;;;3.42;76.26
45793;BME280;31495;42.740;22.908;2022-11-14T05:19:43;94062.56;;;3.36;76.24